createdAt,value
2023-04-02T00:02:22.028Z,32.15
2023-04-02T00:05:35.048Z,32.76
2023-04-02T00:08:41.575Z,32.07
2023-04-02T00:11:49.246Z,32.09
2023-04-02T00:14:55.634Z,31.76
2023-04-02T00:18:00.855Z,31.61
2023-04-02T00:21:21.284Z,31.68
2023-04-02T00:24:24.586Z,31.75
2023-04-02T00:27:28.013Z,31.17
2023-04-02T00:30:31.837Z,31.05
2023-04-02T00:33:36.076Z,31.38
2023-04-02T00:36:39.544Z,31.11
2023-04-02T00:39:43.736Z,30.89
2023-04-02T00:42:49.055Z,30.97
2023-04-02T00:45:56.711Z,30.61
2023-04-02T00:49:09.774Z,30.58
2023-04-02T00:52:22.116Z,30.47
2023-04-02T00:55:34.204Z,31.11
2023-04-02T00:58:38.230Z,30.59
2023-04-02T01:01:43.311Z,30.44
2023-04-02T01:05:06.284Z,30.53
2023-04-02T01:08:25.305Z,30.37
2023-04-02T01:12:05.719Z,30.64
2023-04-02T01:15:28.524Z,30.69
2023-04-02T01:19:02.606Z,30.79
2023-04-02T01:22:08.924Z,30.63
2023-04-02T01:25:18.857Z,30.58
2023-04-02T01:28:50.004Z,30.38
2023-04-02T01:31:56.296Z,30.21
2023-04-02T01:34:59.751Z,30.41
2023-04-02T01:38:19.184Z,30.48
2023-04-02T01:41:35.012Z,30.33
2023-04-02T01:44:49.649Z,31.03
2023-04-02T01:47:57.953Z,30.64
2023-04-02T01:51:04.638Z,30.76
2023-04-02T01:54:09.407Z,30.81
2023-04-02T01:57:24.174Z,30.75
2023-04-02T02:00:31.034Z,31.68
2023-04-02T02:03:36.151Z,32.23
2023-04-02T02:06:41.906Z,32.31
2023-04-02T02:09:46.369Z,32.93
2023-04-02T02:12:50.344Z,33.27
2023-04-02T02:15:57.519Z,33.18
2023-04-02T02:19:05.358Z,33.77
2023-04-02T02:22:40.341Z,36.06
2023-04-02T02:25:44.888Z,40.64
2023-04-02T02:28:54.543Z,39.80
2023-04-02T02:32:00.282Z,40.50
2023-04-02T02:35:21.374Z,42.23
2023-04-02T02:38:35.370Z,42.68
2023-04-02T02:41:53.289Z,43.31
2023-04-02T02:44:59.481Z,45.05
2023-04-02T02:48:04.491Z,45.37
2023-04-02T02:51:15.677Z,46.32
2023-04-02T02:54:20.475Z,45.82
2023-04-02T02:57:31.592Z,47.25
2023-04-02T03:00:36.769Z,48.21
2023-04-02T03:03:41.098Z,50.40
2023-04-02T03:06:53.597Z,50.64
2023-04-02T03:10:20.711Z,52.47
2023-04-02T03:13:36.496Z,53.04
2023-04-02T03:16:57.457Z,52.74
2023-04-02T03:20:37.108Z,54.76
2023-04-02T03:23:47.340Z,54.59
2023-04-02T03:27:18.002Z,52.34
2023-04-02T03:30:44.026Z,56.15
2023-04-02T03:34:00.271Z,56.85
2023-04-02T03:37:18.781Z,58.34
2023-04-02T03:40:34.057Z,58.70
2023-04-02T03:43:59.384Z,60.92
2023-04-02T03:47:13.407Z,61.33
2023-04-02T03:50:30.133Z,62.17
2023-04-02T03:53:35.513Z,63.87
2023-04-02T03:56:42.261Z,64.71
2023-04-02T04:00:18.258Z,65.90
2023-04-02T04:03:42.747Z,64.78
2023-04-02T04:06:50.933Z,65.16
2023-04-02T04:09:59.374Z,63.79
2023-04-02T04:13:08.234Z,66.37
2023-04-02T04:16:27.527Z,64.63
2023-04-02T04:19:39.878Z,63.93
2023-04-02T04:22:43.429Z,65.73
2023-04-02T04:26:02.694Z,65.70
2023-04-02T04:29:15.063Z,67.61
2023-04-02T04:32:32.690Z,67.44
2023-04-02T04:35:52.521Z,67.19
2023-04-02T04:39:07.149Z,66.40
2023-04-02T04:42:28.216Z,66.48
2023-04-02T04:45:51.234Z,67.06
2023-04-02T04:49:09.788Z,66.23
2023-04-02T04:52:38.383Z,67.44
2023-04-02T04:55:48.536Z,68.16
2023-04-02T04:59:27.013Z,68.12
2023-04-02T05:02:39.732Z,67.17
2023-04-02T05:05:50.060Z,66.94
2023-04-02T05:08:56.571Z,68.98
2023-04-02T05:12:23.443Z,68.34
2023-04-02T05:15:42.917Z,67.76
2023-04-02T05:19:57.464Z,67.47
2023-04-02T05:23:17.553Z,68.04
2023-04-02T05:26:42.706Z,68.37
2023-04-02T05:29:51.038Z,69.80
2023-04-02T05:33:20.788Z,68.58
2023-04-02T05:36:28.594Z,69.76
2023-04-02T05:39:34.551Z,69.59
2023-04-02T05:42:39.075Z,69.58
2023-04-02T05:45:58.127Z,67.66
2023-04-02T05:49:02.358Z,66.40
2023-04-02T05:52:13.041Z,67.67
2023-04-02T05:55:20.292Z,70.41
2023-04-02T05:58:41.993Z,69.18
2023-04-02T06:02:25.824Z,70.56
2023-04-02T06:05:37.048Z,69.83
2023-04-02T06:08:48.552Z,69.79
2023-04-02T06:12:18.747Z,71.01
2023-04-02T06:15:26.585Z,69.76
2023-04-02T06:18:37.761Z,69.87
2023-04-02T06:21:51.869Z,67.33
2023-04-02T06:25:21.378Z,70.03
2023-04-02T06:28:32.028Z,69.82
2023-04-02T06:31:58.444Z,70.11
2023-04-02T06:35:02.527Z,70.76
2023-04-02T06:38:08.422Z,69.82
2023-04-02T06:41:22.915Z,70.32
2023-04-02T06:44:47.208Z,69.89
2023-04-02T06:48:19.330Z,70.03
2023-04-02T06:51:31.232Z,69.30
2023-04-02T06:54:41.714Z,70.36
2023-04-02T06:57:49.552Z,68.79
2023-04-02T07:00:58.966Z,68.94
2023-04-02T07:04:28.990Z,69.53
2023-04-02T07:07:50.066Z,69.39
2023-04-02T07:11:22.075Z,71.30
2023-04-02T07:17:57.458Z,70.83
2023-04-02T07:21:01.640Z,68.59
2023-04-02T07:24:33.434Z,69.90
2023-04-02T07:27:37.092Z,69.58
2023-04-02T07:30:40.779Z,68.59
2023-04-02T07:33:45.424Z,66.24
2023-04-02T07:37:15.378Z,66.39
2023-04-02T07:40:26.624Z,67.53
2023-04-02T07:43:31.869Z,68.89
2023-04-02T07:46:47.015Z,69.34
2023-04-02T07:49:55.396Z,68.89
2023-04-02T07:53:09.007Z,69.23
2023-04-02T08:03:22.529Z,70.76
2023-04-02T08:06:28.753Z,70.24
2023-04-02T08:10:11.667Z,69.66
2023-04-02T08:13:46.040Z,69.43
2023-04-02T08:16:56.826Z,69.12
2023-04-02T08:20:07.499Z,69.40
2023-04-02T08:23:19.927Z,71.54
2023-04-02T08:26:26.860Z,71.31
2023-04-02T08:29:33.643Z,70.88
2023-04-02T08:32:52.548Z,68.83
2023-04-02T08:36:21.235Z,68.69
2023-04-02T08:39:47.450Z,70.15
2023-04-02T08:43:17.585Z,70.89
2023-04-02T08:46:39.301Z,69.70
2023-04-02T08:50:02.771Z,68.74
2023-04-02T08:53:18.448Z,68.94
2023-04-02T08:56:40.951Z,68.01
2023-04-02T08:59:45.937Z,67.55
2023-04-02T09:02:57.964Z,67.70
2023-04-02T09:06:03.288Z,68.04
2023-04-02T09:09:10.738Z,68.96
2023-04-02T09:12:19.020Z,69.41
2023-04-02T09:15:32.134Z,69.30
2023-04-02T09:18:37.683Z,71.46
2023-04-02T09:22:00.624Z,70.16
2023-04-02T09:25:12.663Z,70.21
2023-04-02T09:28:16.811Z,71.04
2023-04-02T09:31:27.529Z,67.98
2023-04-02T09:34:36.264Z,68.82
2023-04-02T09:37:40.948Z,67.52
2023-04-02T09:41:05.898Z,69.19
2023-04-02T09:44:32.995Z,69.43
2023-04-02T09:47:37.151Z,69.78
2023-04-02T09:50:41.193Z,69.50
2023-04-02T09:53:49.977Z,69.31
2023-04-02T09:57:04.930Z,69.40
2023-04-02T10:00:32.063Z,70.28
2023-04-02T10:03:43.943Z,69.43
2023-04-02T10:06:54.494Z,70.82
2023-04-02T10:10:04.277Z,70.60
2023-04-02T10:13:33.880Z,69.43
2023-04-02T10:16:58.731Z,70.35
2023-04-02T10:20:12.114Z,70.07
2023-04-02T10:23:19.464Z,70.40
2023-04-02T10:26:39.024Z,69.40
2023-04-02T10:29:53.254Z,68.99
2023-04-02T10:33:34.682Z,69.48
2023-04-02T10:37:00.442Z,70.07
2023-04-02T10:40:35.737Z,71.17
2023-04-02T10:43:47.665Z,70.57
2023-04-02T10:47:09.444Z,70.42
2023-04-02T10:50:37.113Z,71.06
2023-04-02T10:54:05.419Z,72.59
2023-04-02T10:57:31.608Z,71.52
2023-04-02T11:00:42.471Z,72.28
2023-04-02T11:03:58.136Z,72.92
2023-04-02T11:07:14.626Z,71.86
2023-04-02T11:10:21.076Z,71.84
2023-04-02T11:13:31.011Z,71.76
2023-04-02T11:23:22.912Z,68.55
2023-04-02T11:26:47.864Z,66.39
2023-04-02T11:33:44.733Z,64.40
2023-04-02T11:36:56.032Z,64.25
2023-04-02T11:40:11.053Z,64.33
2023-04-02T11:43:38.661Z,64.50
2023-04-02T11:50:11.839Z,64.97
2023-04-02T11:57:16.094Z,64.69
2023-04-02T12:00:56.593Z,63.88
2023-04-02T12:04:18.633Z,63.64
2023-04-02T12:10:58.973Z,63.34
2023-04-02T12:24:44.645Z,64.52
2023-04-02T12:28:12.576Z,64.20
2023-04-02T12:34:52.387Z,63.92
2023-04-02T12:37:59.198Z,62.28
2023-04-02T12:41:19.705Z,62.13
2023-04-02T12:44:25.999Z,61.67
2023-04-02T12:47:30.812Z,61.54
2023-04-02T12:50:35.768Z,62.41
2023-04-02T12:53:50.033Z,62.85
2023-04-02T12:56:56.689Z,63.60
2023-04-02T13:00:06.887Z,63.85
2023-04-02T13:03:23.121Z,64.37
2023-04-02T13:06:27.754Z,64.66
2023-04-02T13:09:44.469Z,65.27
2023-04-02T13:12:55.579Z,66.14
2023-04-02T13:16:38.226Z,66.45
2023-04-02T13:19:42.690Z,65.84
2023-04-02T13:22:49.956Z,65.82
2023-04-02T13:25:56.169Z,66.08
2023-04-02T13:29:21.543Z,66.48
2023-04-02T13:32:32.603Z,65.39
2023-04-02T13:35:36.257Z,65.04
2023-04-02T13:38:39.928Z,64.23
2023-04-02T13:41:51.959Z,64.17
2023-04-02T13:44:58.014Z,64.81
2023-04-02T13:48:04.367Z,65.21
2023-04-02T13:51:07.782Z,64.82
2023-04-02T13:54:46.583Z,64.55
2023-04-02T13:57:51.070Z,65.59
2023-04-02T14:00:57.549Z,65.11
2023-04-02T14:04:02.278Z,64.70
2023-04-02T14:07:27.690Z,64.78
2023-04-02T14:10:48.849Z,64.94
2023-04-02T14:14:04.428Z,65.80
2023-04-02T14:17:35.342Z,64.31
2023-04-02T14:21:00.022Z,65.93
2023-04-02T14:24:17.901Z,65.50
2023-04-02T14:27:33.012Z,64.90
2023-04-02T14:30:54.851Z,64.73
2023-04-02T14:34:01.145Z,64.93
2023-04-02T14:37:37.761Z,64.46
2023-04-02T14:40:55.591Z,64.24
2023-04-02T14:44:24.644Z,64.83
2023-04-02T14:47:55.140Z,63.78
2023-04-02T14:51:12.762Z,64.00
2023-04-02T14:54:23.628Z,63.68
2023-04-02T14:57:39.581Z,63.36
2023-04-02T15:00:47.070Z,63.52
2023-04-02T15:03:56.869Z,63.66
2023-04-02T15:07:18.801Z,63.81
2023-04-02T15:10:58.659Z,62.88
2023-04-02T15:14:09.190Z,63.24
2023-04-02T15:17:13.414Z,63.57
2023-04-02T15:20:20.528Z,63.93
2023-04-02T15:23:55.601Z,64.95
2023-04-02T15:27:25.402Z,64.90
2023-04-02T15:30:35.949Z,65.23
2023-04-02T15:34:01.730Z,65.92
2023-04-02T15:37:36.675Z,66.41
2023-04-02T15:40:58.189Z,66.46
2023-04-02T15:44:05.585Z,66.31
2023-04-02T15:47:19.427Z,67.53
2023-04-02T15:50:44.093Z,67.38
2023-04-02T15:53:57.524Z,67.79
2023-04-02T15:57:21.872Z,67.68
2023-04-02T16:00:27.479Z,67.82
2023-04-02T16:04:00.327Z,67.21
2023-04-02T16:07:03.655Z,67.16
2023-04-02T16:10:40.201Z,67.77
2023-04-02T16:13:45.649Z,67.31
2023-04-02T16:16:51.752Z,67.26
2023-04-02T16:20:17.873Z,68.17
2023-04-02T16:23:32.847Z,68.24
2023-04-02T16:26:55.618Z,67.74
2023-04-02T16:30:02.009Z,67.28
2023-04-02T16:33:34.573Z,67.78
2023-04-02T16:37:04.357Z,67.96
2023-04-02T16:40:32.703Z,67.81
2023-04-02T16:43:53.665Z,67.36
2023-04-02T16:47:06.742Z,67.66
2023-04-02T16:50:34.626Z,67.18
2023-04-02T16:54:18.585Z,67.59
2023-04-02T16:57:37.174Z,67.60
2023-04-02T17:01:17.045Z,67.09
2023-04-02T17:04:30.948Z,66.08
2023-04-02T17:07:42.477Z,65.47
2023-04-02T17:11:07.809Z,64.79
2023-04-02T17:14:30.803Z,65.05
2023-04-02T17:17:34.126Z,65.01
2023-04-02T17:20:37.603Z,64.05
2023-04-02T17:24:03.030Z,63.81
2023-04-02T17:27:28.538Z,63.76
2023-04-02T17:30:54.298Z,63.85
2023-04-02T17:33:58.052Z,64.04
2023-04-02T17:37:13.305Z,64.89
2023-04-02T17:40:26.415Z,64.02
2023-04-02T17:43:32.703Z,64.15
2023-04-02T17:46:58.438Z,63.67
2023-04-02T17:50:43.383Z,64.53
2023-04-02T17:54:05.237Z,64.24
2023-04-02T17:57:28.500Z,64.89
2023-04-02T18:00:42.496Z,64.62
2023-04-02T18:04:14.309Z,63.75
2023-04-02T18:07:47.498Z,64.41
2023-04-02T18:11:25.932Z,63.04
2023-04-02T18:15:07.115Z,63.22
2023-04-02T18:18:25.204Z,62.01
2023-04-02T18:21:42.570Z,61.58
2023-04-02T18:25:09.391Z,61.01
2023-04-02T18:28:15.834Z,60.61
2023-04-02T18:31:37.332Z,60.53
2023-04-02T18:35:05.040Z,60.74
2023-04-02T18:38:41.181Z,60.56
2023-04-02T18:41:53.329Z,61.28
2023-04-02T18:45:19.466Z,59.87
2023-04-02T18:48:57.364Z,60.15
2023-04-02T18:52:03.836Z,60.46
2023-04-02T18:55:15.349Z,58.56
2023-04-02T18:58:57.504Z,58.20
2023-04-02T19:02:27.863Z,58.62
2023-04-02T19:05:39.955Z,57.83
2023-04-02T19:08:50.963Z,58.60
2023-04-02T19:11:54.334Z,58.14
2023-04-02T19:14:59.787Z,59.75
2023-04-02T19:18:21.706Z,57.76
2023-04-02T19:21:45.549Z,60.33
2023-04-02T19:25:09.506Z,59.40
2023-04-02T19:28:17.429Z,56.77
2023-04-02T19:31:51.167Z,57.00
2023-04-02T19:35:00.154Z,57.37
2023-04-02T19:38:37.226Z,57.19
2023-04-02T19:42:20.414Z,57.02
2023-04-02T19:45:40.099Z,58.21
2023-04-02T19:48:53.817Z,58.83
2023-04-02T19:51:57.670Z,58.27
2023-04-02T19:55:00.991Z,59.18
2023-04-02T19:58:13.083Z,58.00
2023-04-02T20:01:22.881Z,58.71
2023-04-02T20:04:26.348Z,58.21
2023-04-02T20:07:31.950Z,58.80
2023-04-02T20:10:35.787Z,58.66
2023-04-02T20:13:41.221Z,58.86
2023-04-02T20:16:45.868Z,59.38
2023-04-02T20:19:49.315Z,58.90
2023-04-02T20:22:52.588Z,58.74
2023-04-02T20:25:58.237Z,57.99
2023-04-02T20:29:01.718Z,57.52
2023-04-02T20:32:05.253Z,57.80
2023-04-02T20:35:08.954Z,56.64
2023-04-02T20:38:12.681Z,56.44
2023-04-02T20:41:18.948Z,56.43
2023-04-02T20:44:22.501Z,58.05
2023-04-02T20:47:25.895Z,57.19
2023-04-02T20:50:29.707Z,57.90
2023-04-02T20:53:35.233Z,56.21
2023-04-02T20:56:38.664Z,56.54
2023-04-02T20:59:42.044Z,54.09
2023-04-02T21:02:45.677Z,54.80
2023-04-02T21:05:49.300Z,53.91
2023-04-02T21:08:53.473Z,54.52
2023-04-02T21:11:56.792Z,55.79
2023-04-02T21:15:02.313Z,56.61
2023-04-02T21:18:06.261Z,55.18
2023-04-02T21:21:09.670Z,54.39
2023-04-02T21:24:13.031Z,53.59
2023-04-02T21:27:16.905Z,54.23
2023-04-02T21:30:20.416Z,52.83
2023-04-02T21:33:23.692Z,53.13
2023-04-02T21:36:30.465Z,52.76
2023-04-02T21:39:34.956Z,53.56
2023-04-02T21:42:38.295Z,53.32
2023-04-02T21:45:42.103Z,54.07
2023-04-02T21:48:46.250Z,53.73
2023-04-02T21:51:52.053Z,54.49
2023-04-02T21:54:55.309Z,53.99
2023-04-02T21:57:58.592Z,53.94
2023-04-02T22:01:01.935Z,54.12
2023-04-02T22:04:06.822Z,54.33
2023-04-02T22:07:10.141Z,54.38
2023-04-02T22:10:13.476Z,55.11
2023-04-02T22:13:16.868Z,55.84
2023-04-02T22:16:22.749Z,54.40
2023-04-02T22:19:26.070Z,54.83
2023-04-02T22:22:29.365Z,55.33
2023-04-02T22:25:32.711Z,53.86
2023-04-02T22:28:36.828Z,54.01
2023-04-02T22:31:40.269Z,53.85
2023-04-02T22:34:46.211Z,52.93
2023-04-02T22:37:49.574Z,53.59
2023-04-02T22:40:52.973Z,53.42
2023-04-02T22:43:57.567Z,53.83
2023-04-02T22:47:00.978Z,52.91
2023-04-02T22:50:04.384Z,52.34
2023-04-02T22:53:07.933Z,52.15
2023-04-02T22:56:13.167Z,51.35
2023-04-02T22:59:16.779Z,51.24
2023-04-02T23:02:20.358Z,50.47
2023-04-02T23:05:23.769Z,50.54
2023-04-02T23:08:27.268Z,50.65
2023-04-02T23:11:30.634Z,49.19
2023-04-02T23:14:34.060Z,48.91
2023-04-02T23:17:38.486Z,49.30
2023-04-02T23:20:41.949Z,49.67
2023-04-02T23:23:46.363Z,49.07
2023-04-02T23:26:49.709Z,47.61
2023-04-02T23:29:52.999Z,48.25
2023-04-02T23:32:56.492Z,48.34
2023-04-02T23:35:59.933Z,48.02
2023-04-02T23:39:09.845Z,47.88
2023-04-02T23:42:13.261Z,47.96
2023-04-02T23:45:16.910Z,48.71
2023-04-02T23:48:20.183Z,49.96
2023-04-02T23:51:24.651Z,47.48
2023-04-02T23:54:28.166Z,47.30
2023-04-02T23:57:31.543Z,48.30
